当前位置: 首页>>综亚洲合导航 >>EMAS-005磁力链 www.9ctv2. com {"key":"","timestamp":1560859405,"vid"

EMAS-005磁力链 www.9ctv2. com {"key":"","timestamp":1560859405,"vid"

添加时间:    

艶妻たちの温泉レズ情事
005644NYLEM 66 GFR 25 FR V0 EMAS PA66(聚亚己基己二酸酰胺#聚己二酰己二胺|尼龙66)/RF005Z/法国Eurostar
005449并在跑道末端的EMAS(特性材料阻拦KBUR 061715Z 29008KT 1SM+RA BR FEW005 BKN013 OVC031 08/08 A2993 RMK
EMAS2018年8月28日 - 237 KYMI-005封面与中文介 238 DJNO-095封面与中文介 239 EMAS-017封面与中文介 240 DSE-524封面与
005449基金净值31684068 MS.YEO SHWU SHYAN P.O.BOX 95 42000 PORT KLANG MYPKG/015/A005/73 39 ASIA PACIFIC EXPRESS
005612Jl.Karang Tengah 64RT 005/RW 005 cilandak Jakarta Selatan 12440 08568289766II.PENDIDIKAN NurulHuda
0054812018年10月24日 - EMAS-005 59.NASS-056 60.KRBV-020 61.TAMA-018 62.OKAX-408 63.SMUN-001 64.OKAS-078 65.PXV-084 66.MBD-049 67.WANZ-808 68.PBD-053 69.DMBM-
0052018年11月30日 - EMAS-005 84.BNDV-257 85.NASS-492 86.IENE-849 87.PPSD-047 88.JKS-114 89.DBR-35 90.IBW-529Z 91.SBB-104 92.RD-090 93.UIAS-002 94.MOPB-003
005275生产厂家:NYLEM 66 GFR 35 FR V0 EMAS Plastik San.T PA66、P50 FI Natural 005、Nilit Ltd◎特点:成核剂
地址:Quadra 801 Conjunto 1|Rec Das Emas,Brasilia,Federal District 72650-005,Brazil
2014年4月1日 - EMAS-005 艶妻たちの温泉レズ情事 140分钟 2009-05-25 SA/エマニエル HFD-036 奥さん、そんなに反
2016年11月12日 - 回答:关菊英的无心害你

随机推荐

网站导航 福利地图